sensor_id;sensor_type;location;lat;lon;timestamp;P1;durP1;ratioP1;P2;durP2;ratioP2
15240;SDS011;7723;52.170;9.978;2023-07-22T00:00:34;7.70;;;4.53;;
15240;SDS011;7723;52.170;9.978;2023-07-22T00:03:01;6.75;;;4.93;;
15240;SDS011;7723;52.170;9.978;2023-07-22T00:05:30;5.82;;;4.50;;
15240;SDS011;7723;52.170;9.978;2023-07-22T00:07:57;6.93;;;4.78;;
15240;SDS011;7723;52.170;9.978;2023-07-22T00:10:24;6.25;;;4.80;;
15240;SDS011;7723;52.170;9.978;2023-07-22T00:12:51;11.55;;;5.47;;
15240;SDS011;7723;52.170;9.978;2023-07-22T00:15:19;7.13;;;4.65;;
15240;SDS011;7723;52.170;9.978;2023-07-22T00:17:49;7.28;;;4.95;;
15240;SDS011;7723;52.170;9.978;2023-07-22T00:20:16;8.90;;;5.15;;
15240;SDS011;7723;52.170;9.978;2023-07-22T00:22:46;6.78;;;4.85;;
15240;SDS011;7723;52.170;9.978;2023-07-22T00:25:15;8.60;;;5.65;;
15240;SDS011;7723;52.170;9.978;2023-07-22T00:27:42;8.40;;;5.97;;
15240;SDS011;7723;52.170;9.978;2023-07-22T00:30:10;7.65;;;5.18;;
15240;SDS011;7723;52.170;9.978;2023-07-22T00:32:37;7.90;;;5.38;;
15240;SDS011;7723;52.170;9.978;2023-07-22T00:35:06;8.38;;;5.85;;
15240;SDS011;7723;52.170;9.978;2023-07-22T00:37:34;7.38;;;5.50;;
15240;SDS011;7723;52.170;9.978;2023-07-22T00:40:03;8.18;;;5.70;;
15240;SDS011;7723;52.170;9.978;2023-07-22T00:42:36;9.55;;;5.60;;
15240;SDS011;7723;52.170;9.978;2023-07-22T00:45:04;8.35;;;5.88;;
15240;SDS011;7723;52.170;9.978;2023-07-22T00:47:32;8.93;;;5.65;;
15240;SDS011;7723;52.170;9.978;2023-07-22T00:50:00;9.70;;;5.80;;
15240;SDS011;7723;52.170;9.978;2023-07-22T00:52:29;7.50;;;5.35;;
15240;SDS011;7723;52.170;9.978;2023-07-22T00:54:56;9.40;;;5.55;;
15240;SDS011;7723;52.170;9.978;2023-07-22T00:57:25;6.82;;;5.20;;
15240;SDS011;7723;52.170;9.978;2023-07-22T00:59:52;6.88;;;5.32;;
15240;SDS011;7723;52.170;9.978;2023-07-22T01:02:20;7.55;;;5.38;;
15240;SDS011;7723;52.170;9.978;2023-07-22T01:04:48;14.48;;;6.47;;
15240;SDS011;7723;52.170;9.978;2023-07-22T01:07:17;11.27;;;5.85;;
15240;SDS011;7723;52.170;9.978;2023-07-22T01:09:44;7.45;;;5.18;;
15240;SDS011;7723;52.170;9.978;2023-07-22T01:12:12;8.30;;;5.65;;
15240;SDS011;7723;52.170;9.978;2023-07-22T01:14:41;8.32;;;5.40;;
15240;SDS011;7723;52.170;9.978;2023-07-22T01:17:09;9.60;;;5.95;;
15240;SDS011;7723;52.170;9.978;2023-07-22T01:19:38;8.40;;;5.60;;
15240;SDS011;7723;52.170;9.978;2023-07-22T01:22:06;8.73;;;5.85;;
15240;SDS011;7723;52.170;9.978;2023-07-22T01:24:35;9.82;;;5.72;;
15240;SDS011;7723;52.170;9.978;2023-07-22T01:27:02;10.23;;;5.70;;
15240;SDS011;7723;52.170;9.978;2023-07-22T01:29:33;8.57;;;5.03;;
15240;SDS011;7723;52.170;9.978;2023-07-22T01:32:01;9.25;;;6.38;;
15240;SDS011;7723;52.170;9.978;2023-07-22T01:34:28;9.52;;;5.90;;
15240;SDS011;7723;52.170;9.978;2023-07-22T01:36:56;8.52;;;5.85;;
15240;SDS011;7723;52.170;9.978;2023-07-22T01:39:25;9.63;;;6.13;;
15240;SDS011;7723;52.170;9.978;2023-07-22T01:41:54;10.23;;;6.93;;
15240;SDS011;7723;52.170;9.978;2023-07-22T01:44:21;8.10;;;5.20;;
15240;SDS011;7723;52.170;9.978;2023-07-22T01:46:48;9.98;;;5.45;;
15240;SDS011;7723;52.170;9.978;2023-07-22T01:49:16;8.77;;;5.47;;
15240;SDS011;7723;52.170;9.978;2023-07-22T01:51:43;8.50;;;5.20;;
15240;SDS011;7723;52.170;9.978;2023-07-22T01:54:10;6.75;;;4.68;;
15240;SDS011;7723;52.170;9.978;2023-07-22T01:56:38;7.28;;;4.97;;
15240;SDS011;7723;52.170;9.978;2023-07-22T01:59:07;9.07;;;5.40;;
15240;SDS011;7723;52.170;9.978;2023-07-22T02:01:34;8.45;;;4.88;;
15240;SDS011;7723;52.170;9.978;2023-07-22T02:04:02;8.70;;;5.22;;
15240;SDS011;7723;52.170;9.978;2023-07-22T02:06:29;9.00;;;5.50;;
15240;SDS011;7723;52.170;9.978;2023-07-22T02:08:56;8.02;;;4.78;;
15240;SDS011;7723;52.170;9.978;2023-07-22T02:11:24;6.57;;;4.60;;
15240;SDS011;7723;52.170;9.978;2023-07-22T02:13:51;8.27;;;4.90;;
15240;SDS011;7723;52.170;9.978;2023-07-22T02:16:19;8.60;;;5.18;;
15240;SDS011;7723;52.170;9.978;2023-07-22T02:18:46;8.40;;;5.22;;
15240;SDS011;7723;52.170;9.978;2023-07-22T02:21:12;8.48;;;5.40;;
15240;SDS011;7723;52.170;9.978;2023-07-22T02:23:39;7.88;;;5.30;;
15240;SDS011;7723;52.170;9.978;2023-07-22T02:26:07;8.05;;;5.32;;
15240;SDS011;7723;52.170;9.978;2023-07-22T02:28:34;10.38;;;5.40;;
15240;SDS011;7723;52.170;9.978;2023-07-22T02:31:01;8.90;;;4.80;;
15240;SDS011;7723;52.170;9.978;2023-07-22T02:33:33;8.05;;;5.40;;
15240;SDS011;7723;52.170;9.978;2023-07-22T02:36:00;8.55;;;5.47;;
15240;SDS011;7723;52.170;9.978;2023-07-22T02:38:27;6.95;;;5.30;;
15240;SDS011;7723;52.170;9.978;2023-07-22T02:40:54;8.93;;;4.95;;
15240;SDS011;7723;52.170;9.978;2023-07-22T02:43:27;7.03;;;4.68;;
15240;SDS011;7723;52.170;9.978;2023-07-22T02:45:54;8.40;;;4.93;;
15240;SDS011;7723;52.170;9.978;2023-07-22T02:48:22;6.35;;;4.65;;
15240;SDS011;7723;52.170;9.978;2023-07-22T02:50:50;9.45;;;5.13;;
15240;SDS011;7723;52.170;9.978;2023-07-22T02:53:18;11.80;;;5.07;;
15240;SDS011;7723;52.170;9.978;2023-07-22T02:55:45;7.95;;;4.82;;
15240;SDS011;7723;52.170;9.978;2023-07-22T02:58:13;7.88;;;4.38;;
15240;SDS011;7723;52.170;9.978;2023-07-22T03:00:40;8.32;;;4.50;;
15240;SDS011;7723;52.170;9.978;2023-07-22T03:03:08;7.53;;;4.82;;
15240;SDS011;7723;52.170;9.978;2023-07-22T03:05:36;6.03;;;4.30;;
15240;SDS011;7723;52.170;9.978;2023-07-22T03:08:05;8.90;;;5.20;;
15240;SDS011;7723;52.170;9.978;2023-07-22T03:10:32;7.28;;;4.45;;
15240;SDS011;7723;52.170;9.978;2023-07-22T03:12:59;9.07;;;5.13;;
15240;SDS011;7723;52.170;9.978;2023-07-22T03:15:28;6.80;;;4.80;;
15240;SDS011;7723;52.170;9.978;2023-07-22T03:17:56;7.20;;;4.20;;
15240;SDS011;7723;52.170;9.978;2023-07-22T03:20:24;8.25;;;4.75;;
15240;SDS011;7723;52.170;9.978;2023-07-22T03:22:51;7.53;;;4.72;;
15240;SDS011;7723;52.170;9.978;2023-07-22T03:25:21;9.55;;;4.80;;
15240;SDS011;7723;52.170;9.978;2023-07-22T03:27:48;8.75;;;4.18;;
15240;SDS011;7723;52.170;9.978;2023-07-22T03:30:15;8.15;;;4.47;;
15240;SDS011;7723;52.170;9.978;2023-07-22T03:32:44;8.55;;;4.05;;
15240;SDS011;7723;52.170;9.978;2023-07-22T03:35:12;7.90;;;4.65;;
15240;SDS011;7723;52.170;9.978;2023-07-22T03:37:40;8.13;;;4.43;;
15240;SDS011;7723;52.170;9.978;2023-07-22T03:40:07;6.53;;;4.53;;
15240;SDS011;7723;52.170;9.978;2023-07-22T03:42:44;7.30;;;4.32;;
15240;SDS011;7723;52.170;9.978;2023-07-22T03:45:11;8.20;;;4.28;;
15240;SDS011;7723;52.170;9.978;2023-07-22T03:47:38;6.50;;;4.60;;
15240;SDS011;7723;52.170;9.978;2023-07-22T03:50:06;6.25;;;3.85;;
15240;SDS011;7723;52.170;9.978;2023-07-22T03:52:34;6.50;;;4.13;;
15240;SDS011;7723;52.170;9.978;2023-07-22T03:55:01;7.32;;;4.38;;
15240;SDS011;7723;52.170;9.978;2023-07-22T03:57:30;6.68;;;4.40;;
15240;SDS011;7723;52.170;9.978;2023-07-22T03:59:59;6.40;;;4.30;;
15240;SDS011;7723;52.170;9.978;2023-07-22T04:02:26;6.25;;;3.95;;
15240;SDS011;7723;52.170;9.978;2023-07-22T04:04:54;7.10;;;4.53;;
15240;SDS011;7723;52.170;9.978;2023-07-22T04:07:21;6.38;;;4.18;;
15240;SDS011;7723;52.170;9.978;2023-07-22T04:09:49;7.05;;;4.57;;
15240;SDS011;7723;52.170;9.978;2023-07-22T04:12:16;9.45;;;4.50;;
15240;SDS011;7723;52.170;9.978;2023-07-22T04:14:43;6.68;;;4.00;;
15240;SDS011;7723;52.170;9.978;2023-07-22T04:17:12;7.90;;;4.38;;
15240;SDS011;7723;52.170;9.978;2023-07-22T04:19:40;6.28;;;4.05;;
15240;SDS011;7723;52.170;9.978;2023-07-22T04:22:08;5.82;;;3.45;;
15240;SDS011;7723;52.170;9.978;2023-07-22T04:24:35;7.32;;;4.13;;
15240;SDS011;7723;52.170;9.978;2023-07-22T04:27:03;8.43;;;3.80;;
15240;SDS011;7723;52.170;9.978;2023-07-22T04:29:30;5.43;;;3.60;;
15240;SDS011;7723;52.170;9.978;2023-07-22T04:31:58;4.93;;;3.35;;
15240;SDS011;7723;52.170;9.978;2023-07-22T04:34:29;5.55;;;3.30;;
15240;SDS011;7723;52.170;9.978;2023-07-22T04:36:56;6.55;;;3.47;;
15240;SDS011;7723;52.170;9.978;2023-07-22T04:39:23;5.20;;;3.58;;
15240;SDS011;7723;52.170;9.978;2023-07-22T04:41:51;5.20;;;3.33;;
15240;SDS011;7723;52.170;9.978;2023-07-22T04:44:18;4.75;;;3.10;;
15240;SDS011;7723;52.170;9.978;2023-07-22T04:46:45;4.80;;;3.53;;
15240;SDS011;7723;52.170;9.978;2023-07-22T04:49:13;5.75;;;3.55;;
15240;SDS011;7723;52.170;9.978;2023-07-22T04:51:44;4.28;;;3.42;;
15240;SDS011;7723;52.170;9.978;2023-07-22T04:54:12;6.15;;;3.28;;
15240;SDS011;7723;52.170;9.978;2023-07-22T04:56:40;5.95;;;3.28;;
15240;SDS011;7723;52.170;9.978;2023-07-22T04:59:07;5.68;;;3.92;;
15240;SDS011;7723;52.170;9.978;2023-07-22T05:01:35;6.32;;;3.78;;
15240;SDS011;7723;52.170;9.978;2023-07-22T05:04:02;6.25;;;3.50;;
15240;SDS011;7723;52.170;9.978;2023-07-22T05:06:30;5.97;;;3.92;;
15240;SDS011;7723;52.170;9.978;2023-07-22T05:08:58;5.50;;;3.97;;
15240;SDS011;7723;52.170;9.978;2023-07-22T05:11:25;5.75;;;4.10;;
15240;SDS011;7723;52.170;9.978;2023-07-22T05:13:52;5.72;;;3.47;;
15240;SDS011;7723;52.170;9.978;2023-07-22T05:16:20;5.95;;;3.50;;
15240;SDS011;7723;52.170;9.978;2023-07-22T05:18:47;4.65;;;3.20;;
15240;SDS011;7723;52.170;9.978;2023-07-22T05:21:14;5.18;;;3.47;;
15240;SDS011;7723;52.170;9.978;2023-07-22T05:23:41;7.15;;;3.50;;
15240;SDS011;7723;52.170;9.978;2023-07-22T05:26:10;4.88;;;3.65;;
15240;SDS011;7723;52.170;9.978;2023-07-22T05:28:37;7.80;;;4.15;;
15240;SDS011;7723;52.170;9.978;2023-07-22T05:31:04;5.60;;;3.78;;
15240;SDS011;7723;52.170;9.978;2023-07-22T05:33:31;5.30;;;3.95;;
15240;SDS011;7723;52.170;9.978;2023-07-22T05:35:58;6.60;;;3.70;;
15240;SDS011;7723;52.170;9.978;2023-07-22T05:38:26;4.88;;;3.58;;
15240;SDS011;7723;52.170;9.978;2023-07-22T05:40:53;6.75;;;3.88;;
15240;SDS011;7723;52.170;9.978;2023-07-22T05:43:22;5.15;;;3.55;;
15240;SDS011;7723;52.170;9.978;2023-07-22T05:45:49;5.00;;;3.28;;
15240;SDS011;7723;52.170;9.978;2023-07-22T05:48:16;5.85;;;4.38;;
15240;SDS011;7723;52.170;9.978;2023-07-22T05:50:43;4.72;;;3.67;;
15240;SDS011;7723;52.170;9.978;2023-07-22T05:53:11;5.50;;;3.90;;
15240;SDS011;7723;52.170;9.978;2023-07-22T05:55:38;6.63;;;3.75;;
15240;SDS011;7723;52.170;9.978;2023-07-22T05:58:06;7.90;;;3.60;;
15240;SDS011;7723;52.170;9.978;2023-07-22T06:00:35;8.65;;;4.90;;
15240;SDS011;7723;52.170;9.978;2023-07-22T06:03:02;8.27;;;4.32;;
15240;SDS011;7723;52.170;9.978;2023-07-22T06:05:30;7.07;;;3.97;;
15240;SDS011;7723;52.170;9.978;2023-07-22T06:07:57;7.35;;;4.72;;
15240;SDS011;7723;52.170;9.978;2023-07-22T06:10:24;5.45;;;3.53;;
15240;SDS011;7723;52.170;9.978;2023-07-22T06:12:51;7.32;;;4.50;;
15240;SDS011;7723;52.170;9.978;2023-07-22T06:15:18;8.50;;;4.53;;
15240;SDS011;7723;52.170;9.978;2023-07-22T06:17:47;6.30;;;4.03;;
15240;SDS011;7723;52.170;9.978;2023-07-22T06:20:14;6.55;;;5.15;;
15240;SDS011;7723;52.170;9.978;2023-07-22T06:22:42;7.38;;;5.00;;
15240;SDS011;7723;52.170;9.978;2023-07-22T06:25:09;8.25;;;5.45;;
15240;SDS011;7723;52.170;9.978;2023-07-22T06:27:37;8.18;;;5.70;;
15240;SDS011;7723;52.170;9.978;2023-07-22T06:30:05;7.70;;;4.72;;
15240;SDS011;7723;52.170;9.978;2023-07-22T06:32:33;7.18;;;5.00;;
15240;SDS011;7723;52.170;9.978;2023-07-22T06:35:02;6.78;;;4.93;;
15240;SDS011;7723;52.170;9.978;2023-07-22T06:37:30;7.55;;;4.40;;
15240;SDS011;7723;52.170;9.978;2023-07-22T06:39:57;6.78;;;5.18;;
15240;SDS011;7723;52.170;9.978;2023-07-22T06:42:24;7.85;;;5.10;;
15240;SDS011;7723;52.170;9.978;2023-07-22T06:44:52;7.13;;;5.45;;
15240;SDS011;7723;52.170;9.978;2023-07-22T06:47:19;7.60;;;5.53;;
15240;SDS011;7723;52.170;9.978;2023-07-22T06:49:46;6.43;;;5.15;;
15240;SDS011;7723;52.170;9.978;2023-07-22T06:52:15;7.32;;;5.13;;
15240;SDS011;7723;52.170;9.978;2023-07-22T06:54:42;8.27;;;5.75;;
15240;SDS011;7723;52.170;9.978;2023-07-22T06:57:09;8.77;;;5.22;;
15240;SDS011;7723;52.170;9.978;2023-07-22T06:59:36;6.72;;;4.72;;
15240;SDS011;7723;52.170;9.978;2023-07-22T07:02:04;7.70;;;5.10;;
15240;SDS011;7723;52.170;9.978;2023-07-22T07:04:31;8.52;;;5.35;;
15240;SDS011;7723;52.170;9.978;2023-07-22T07:06:58;6.95;;;5.43;;
15240;SDS011;7723;52.170;9.978;2023-07-22T07:09:27;5.63;;;4.93;;
15240;SDS011;7723;52.170;9.978;2023-07-22T07:11:54;7.38;;;5.30;;
15240;SDS011;7723;52.170;9.978;2023-07-22T07:14:22;7.97;;;5.15;;
15240;SDS011;7723;52.170;9.978;2023-07-22T07:16:49;8.85;;;5.25;;
15240;SDS011;7723;52.170;9.978;2023-07-22T07:19:17;6.35;;;5.13;;
15240;SDS011;7723;52.170;9.978;2023-07-22T07:21:44;7.55;;;4.90;;
15240;SDS011;7723;52.170;9.978;2023-07-22T07:24:11;8.70;;;5.35;;
15240;SDS011;7723;52.170;9.978;2023-07-22T07:26:39;8.73;;;5.13;;
15240;SDS011;7723;52.170;9.978;2023-07-22T07:29:07;8.23;;;4.60;;
15240;SDS011;7723;52.170;9.978;2023-07-22T07:31:33;8.75;;;5.18;;
15240;SDS011;7723;52.170;9.978;2023-07-22T07:34:00;7.78;;;5.55;;
15240;SDS011;7723;52.170;9.978;2023-07-22T07:36:27;7.35;;;4.63;;
15240;SDS011;7723;52.170;9.978;2023-07-22T07:38:54;6.80;;;4.63;;
15240;SDS011;7723;52.170;9.978;2023-07-22T07:41:21;6.93;;;3.90;;
15240;SDS011;7723;52.170;9.978;2023-07-22T07:43:50;6.68;;;4.53;;
15240;SDS011;7723;52.170;9.978;2023-07-22T07:46:18;6.30;;;4.35;;
15240;SDS011;7723;52.170;9.978;2023-07-22T07:48:47;6.30;;;4.90;;
15240;SDS011;7723;52.170;9.978;2023-07-22T07:51:16;6.47;;;4.78;;
15240;SDS011;7723;52.170;9.978;2023-07-22T07:53:43;8.18;;;5.00;;
15240;SDS011;7723;52.170;9.978;2023-07-22T07:56:12;5.70;;;4.35;;
15240;SDS011;7723;52.170;9.978;2023-07-22T07:58:39;7.72;;;4.72;;
15240;SDS011;7723;52.170;9.978;2023-07-22T08:01:08;5.88;;;4.43;;
15240;SDS011;7723;52.170;9.978;2023-07-22T08:03:36;5.38;;;4.28;;
15240;SDS011;7723;52.170;9.978;2023-07-22T08:06:05;5.15;;;4.18;;
15240;SDS011;7723;52.170;9.978;2023-07-22T08:08:32;5.28;;;4.50;;
15240;SDS011;7723;52.170;9.978;2023-07-22T08:10:59;6.30;;;4.63;;
15240;SDS011;7723;52.170;9.978;2023-07-22T08:13:28;6.07;;;4.85;;
15240;SDS011;7723;52.170;9.978;2023-07-22T08:15:56;7.38;;;5.40;;
15240;SDS011;7723;52.170;9.978;2023-07-22T08:18:25;7.85;;;5.82;;
15240;SDS011;7723;52.170;9.978;2023-07-22T08:20:52;9.15;;;5.85;;
15240;SDS011;7723;52.170;9.978;2023-07-22T08:23:21;8.15;;;6.15;;
15240;SDS011;7723;52.170;9.978;2023-07-22T08:25:48;8.30;;;5.68;;
15240;SDS011;7723;52.170;9.978;2023-07-22T08:28:15;9.05;;;5.80;;
15240;SDS011;7723;52.170;9.978;2023-07-22T08:30:43;8.32;;;5.10;;
15240;SDS011;7723;52.170;9.978;2023-07-22T08:33:10;8.90;;;5.72;;
15240;SDS011;7723;52.170;9.978;2023-07-22T08:35:39;8.95;;;6.43;;
15240;SDS011;7723;52.170;9.978;2023-07-22T08:38:07;9.73;;;6.30;;
15240;SDS011;7723;52.170;9.978;2023-07-22T08:40:34;11.45;;;6.88;;
15240;SDS011;7723;52.170;9.978;2023-07-22T08:43:02;10.00;;;7.13;;
15240;SDS011;7723;52.170;9.978;2023-07-22T08:45:31;8.15;;;6.57;;
15240;SDS011;7723;52.170;9.978;2023-07-22T08:48:02;10.93;;;7.32;;
15240;SDS011;7723;52.170;9.978;2023-07-22T08:50:33;10.40;;;6.53;;
15240;SDS011;7723;52.170;9.978;2023-07-22T08:53:09;10.30;;;7.50;;
15240;SDS011;7723;52.170;9.978;2023-07-22T08:55:37;8.32;;;6.68;;
15240;SDS011;7723;52.170;9.978;2023-07-22T08:58:05;9.82;;;7.13;;
15240;SDS011;7723;52.170;9.978;2023-07-22T09:00:35;8.15;;;7.00;;
15240;SDS011;7723;52.170;9.978;2023-07-22T09:03:04;8.32;;;6.38;;
15240;SDS011;7723;52.170;9.978;2023-07-22T09:05:31;8.73;;;5.68;;
15240;SDS011;7723;52.170;9.978;2023-07-22T09:07:59;8.77;;;5.75;;
15240;SDS011;7723;52.170;9.978;2023-07-22T09:10:30;8.45;;;5.93;;
15240;SDS011;7723;52.170;9.978;2023-07-22T09:12:58;10.07;;;6.07;;
15240;SDS011;7723;52.170;9.978;2023-07-22T09:15:26;7.43;;;5.78;;
15240;SDS011;7723;52.170;9.978;2023-07-22T09:17:54;9.00;;;5.78;;
15240;SDS011;7723;52.170;9.978;2023-07-22T09:20:21;6.57;;;5.25;;
15240;SDS011;7723;52.170;9.978;2023-07-22T09:22:49;6.85;;;5.55;;
15240;SDS011;7723;52.170;9.978;2023-07-22T09:25:18;6.63;;;4.90;;
15240;SDS011;7723;52.170;9.978;2023-07-22T09:27:48;6.57;;;5.35;;
15240;SDS011;7723;52.170;9.978;2023-07-22T09:30:23;6.10;;;4.68;;
15240;SDS011;7723;52.170;9.978;2023-07-22T09:32:51;5.93;;;4.50;;
15240;SDS011;7723;52.170;9.978;2023-07-22T09:35:21;5.85;;;4.38;;
15240;SDS011;7723;52.170;9.978;2023-07-22T09:37:48;6.47;;;4.28;;
15240;SDS011;7723;52.170;9.978;2023-07-22T09:40:17;8.00;;;3.90;;
15240;SDS011;7723;52.170;9.978;2023-07-22T09:42:46;7.43;;;3.80;;
15240;SDS011;7723;52.170;9.978;2023-07-22T09:45:15;3.80;;;3.28;;
15240;SDS011;7723;52.170;9.978;2023-07-22T09:47:44;4.03;;;3.63;;
15240;SDS011;7723;52.170;9.978;2023-07-22T09:50:13;5.15;;;3.95;;
15240;SDS011;7723;52.170;9.978;2023-07-22T09:52:43;4.97;;;3.13;;
15240;SDS011;7723;52.170;9.978;2023-07-22T09:55:12;4.53;;;3.75;;
15240;SDS011;7723;52.170;9.978;2023-07-22T09:57:43;5.30;;;3.63;;
15240;SDS011;7723;52.170;9.978;2023-07-22T10:00:14;4.88;;;3.42;;
15240;SDS011;7723;52.170;9.978;2023-07-22T10:02:43;5.85;;;3.78;;
15240;SDS011;7723;52.170;9.978;2023-07-22T10:05:12;5.38;;;3.65;;
15240;SDS011;7723;52.170;9.978;2023-07-22T10:07:45;5.65;;;3.72;;
15240;SDS011;7723;52.170;9.978;2023-07-22T10:10:15;4.03;;;3.40;;
15240;SDS011;7723;52.170;9.978;2023-07-22T10:12:43;5.88;;;3.30;;
15240;SDS011;7723;52.170;9.978;2023-07-22T10:15:11;3.63;;;3.30;;
15240;SDS011;7723;52.170;9.978;2023-07-22T10:17:44;4.43;;;3.40;;
15240;SDS011;7723;52.170;9.978;2023-07-22T10:20:12;6.53;;;3.45;;
15240;SDS011;7723;52.170;9.978;2023-07-22T10:22:41;5.70;;;3.88;;
15240;SDS011;7723;52.170;9.978;2023-07-22T10:25:10;3.95;;;3.45;;
15240;SDS011;7723;52.170;9.978;2023-07-22T10:27:39;3.83;;;2.88;;
15240;SDS011;7723;52.170;9.978;2023-07-22T10:30:07;5.90;;;3.28;;
15240;SDS011;7723;52.170;9.978;2023-07-22T10:32:37;4.95;;;3.17;;
15240;SDS011;7723;52.170;9.978;2023-07-22T10:35:07;4.68;;;3.17;;
15240;SDS011;7723;52.170;9.978;2023-07-22T10:37:36;4.72;;;3.42;;
15240;SDS011;7723;52.170;9.978;2023-07-22T10:40:16;5.10;;;3.58;;
15240;SDS011;7723;52.170;9.978;2023-07-22T10:42:51;3.80;;;3.40;;
15240;SDS011;7723;52.170;9.978;2023-07-22T10:45:24;4.63;;;3.35;;
15240;SDS011;7723;52.170;9.978;2023-07-22T10:48:01;6.90;;;4.57;;
15240;SDS011;7723;52.170;9.978;2023-07-22T10:50:38;4.70;;;3.45;;
15240;SDS011;7723;52.170;9.978;2023-07-22T10:53:08;6.03;;;3.92;;
15240;SDS011;7723;52.170;9.978;2023-07-22T10:58:33;6.47;;;3.70;;
15240;SDS011;7723;52.170;9.978;2023-07-22T11:01:21;4.97;;;4.13;;
15240;SDS011;7723;52.170;9.978;2023-07-22T11:04:12;4.97;;;3.53;;
15240;SDS011;7723;52.170;9.978;2023-07-22T11:06:54;4.20;;;3.58;;
15240;SDS011;7723;52.170;9.978;2023-07-22T11:09:38;3.80;;;3.00;;
15240;SDS011;7723;52.170;9.978;2023-07-22T11:12:08;6.10;;;3.58;;
15240;SDS011;7723;52.170;9.978;2023-07-22T11:14:38;4.43;;;3.03;;
15240;SDS011;7723;52.170;9.978;2023-07-22T11:17:07;4.35;;;3.75;;
15240;SDS011;7723;52.170;9.978;2023-07-22T11:19:37;3.70;;;3.20;;
15240;SDS011;7723;52.170;9.978;2023-07-22T11:22:06;6.43;;;3.78;;
15240;SDS011;7723;52.170;9.978;2023-07-22T11:24:33;5.85;;;3.03;;
15240;SDS011;7723;52.170;9.978;2023-07-22T11:27:02;5.65;;;3.70;;
15240;SDS011;7723;52.170;9.978;2023-07-22T11:29:30;3.90;;;3.00;;
15240;SDS011;7723;52.170;9.978;2023-07-22T11:31:58;4.10;;;3.67;;
15240;SDS011;7723;52.170;9.978;2023-07-22T11:34:25;5.07;;;3.63;;
15240;SDS011;7723;52.170;9.978;2023-07-22T11:36:55;4.30;;;3.35;;
15240;SDS011;7723;52.170;9.978;2023-07-22T11:39:24;4.07;;;3.40;;
15240;SDS011;7723;52.170;9.978;2023-07-22T11:41:51;4.82;;;3.95;;
15240;SDS011;7723;52.170;9.978;2023-07-22T11:44:20;4.25;;;3.55;;
15240;SDS011;7723;52.170;9.978;2023-07-22T11:46:49;4.80;;;3.13;;
15240;SDS011;7723;52.170;9.978;2023-07-22T11:49:26;4.05;;;3.53;;
15240;SDS011;7723;52.170;9.978;2023-07-22T11:51:56;6.47;;;3.90;;
15240;SDS011;7723;52.170;9.978;2023-07-22T11:54:24;5.55;;;3.42;;
15240;SDS011;7723;52.170;9.978;2023-07-22T11:56:54;5.72;;;4.03;;
15240;SDS011;7723;52.170;9.978;2023-07-22T11:59:34;3.97;;;2.90;;
15240;SDS011;7723;52.170;9.978;2023-07-22T12:02:01;4.03;;;3.00;;
15240;SDS011;7723;52.170;9.978;2023-07-22T12:04:30;3.78;;;3.08;;
15240;SDS011;7723;52.170;9.978;2023-07-22T12:07:00;3.60;;;2.58;;
15240;SDS011;7723;52.170;9.978;2023-07-22T12:09:29;3.40;;;2.60;;
15240;SDS011;7723;52.170;9.978;2023-07-22T12:11:57;4.80;;;2.50;;
15240;SDS011;7723;52.170;9.978;2023-07-22T12:14:31;3.83;;;2.58;;
15240;SDS011;7723;52.170;9.978;2023-07-22T12:17:00;4.10;;;2.72;;
15240;SDS011;7723;52.170;9.978;2023-07-22T12:19:28;4.28;;;2.42;;
15240;SDS011;7723;52.170;9.978;2023-07-22T12:21:55;4.10;;;2.97;;
15240;SDS011;7723;52.170;9.978;2023-07-22T12:24:24;3.40;;;2.40;;
15240;SDS011;7723;52.170;9.978;2023-07-22T12:26:51;3.50;;;2.92;;
15240;SDS011;7723;52.170;9.978;2023-07-22T12:29:18;3.17;;;2.72;;
15240;SDS011;7723;52.170;9.978;2023-07-22T12:31:47;4.07;;;2.78;;
15240;SDS011;7723;52.170;9.978;2023-07-22T12:34:14;3.83;;;2.90;;
15240;SDS011;7723;52.170;9.978;2023-07-22T12:36:41;3.90;;;3.10;;
15240;SDS011;7723;52.170;9.978;2023-07-22T12:39:08;2.97;;;2.53;;
15240;SDS011;7723;52.170;9.978;2023-07-22T12:41:37;3.05;;;2.75;;
15240;SDS011;7723;52.170;9.978;2023-07-22T12:44:04;3.83;;;2.90;;
15240;SDS011;7723;52.170;9.978;2023-07-22T12:46:31;4.43;;;3.05;;
15240;SDS011;7723;52.170;9.978;2023-07-22T12:48:58;4.10;;;2.97;;
15240;SDS011;7723;52.170;9.978;2023-07-22T12:51:25;5.55;;;3.60;;
15240;SDS011;7723;52.170;9.978;2023-07-22T12:53:52;9.60;;;4.30;;
15240;SDS011;7723;52.170;9.978;2023-07-22T12:56:19;5.95;;;3.78;;
15240;SDS011;7723;52.170;9.978;2023-07-22T12:58:48;6.32;;;3.58;;
15240;SDS011;7723;52.170;9.978;2023-07-22T13:01:15;6.88;;;3.80;;
15240;SDS011;7723;52.170;9.978;2023-07-22T13:03:42;7.55;;;4.88;;
15240;SDS011;7723;52.170;9.978;2023-07-22T13:06:10;4.82;;;3.63;;
15240;SDS011;7723;52.170;9.978;2023-07-22T13:08:37;12.65;;;5.93;;
15240;SDS011;7723;52.170;9.978;2023-07-22T13:11:04;4.78;;;3.15;;
15240;SDS011;7723;52.170;9.978;2023-07-22T13:13:31;6.03;;;3.70;;
15240;SDS011;7723;52.170;9.978;2023-07-22T13:15:59;5.25;;;4.00;;
15240;SDS011;7723;52.170;9.978;2023-07-22T13:18:26;4.45;;;3.55;;
15240;SDS011;7723;52.170;9.978;2023-07-22T13:20:53;4.53;;;3.55;;
15240;SDS011;7723;52.170;9.978;2023-07-22T13:23:20;4.57;;;3.80;;
15240;SDS011;7723;52.170;9.978;2023-07-22T13:25:47;3.90;;;3.30;;
15240;SDS011;7723;52.170;9.978;2023-07-22T13:28:14;3.83;;;2.90;;
15240;SDS011;7723;52.170;9.978;2023-07-22T13:30:41;7.65;;;3.88;;
15240;SDS011;7723;52.170;9.978;2023-07-22T13:33:10;4.70;;;3.63;;
15240;SDS011;7723;52.170;9.978;2023-07-22T13:35:37;4.10;;;3.60;;
15240;SDS011;7723;52.170;9.978;2023-07-22T13:38:04;3.92;;;3.20;;
15240;SDS011;7723;52.170;9.978;2023-07-22T13:40:31;4.45;;;3.40;;
15240;SDS011;7723;52.170;9.978;2023-07-22T13:42:58;5.45;;;3.80;;
15240;SDS011;7723;52.170;9.978;2023-07-22T13:45:25;7.63;;;4.05;;
15240;SDS011;7723;52.170;9.978;2023-07-22T13:47:52;5.25;;;3.83;;
15240;SDS011;7723;52.170;9.978;2023-07-22T13:50:21;6.03;;;3.85;;
15240;SDS011;7723;52.170;9.978;2023-07-22T13:52:48;6.13;;;3.58;;
15240;SDS011;7723;52.170;9.978;2023-07-22T13:55:16;5.05;;;3.30;;
15240;SDS011;7723;52.170;9.978;2023-07-22T13:57:43;4.15;;;3.40;;
15240;SDS011;7723;52.170;9.978;2023-07-22T14:00:10;3.75;;;3.33;;
15240;SDS011;7723;52.170;9.978;2023-07-22T14:02:39;5.30;;;3.70;;
15240;SDS011;7723;52.170;9.978;2023-07-22T14:05:07;5.43;;;3.80;;
15240;SDS011;7723;52.170;9.978;2023-07-22T14:07:36;4.82;;;3.90;;
15240;SDS011;7723;52.170;9.978;2023-07-22T14:10:05;4.50;;;3.88;;
15240;SDS011;7723;52.170;9.978;2023-07-22T14:12:34;6.13;;;3.90;;
15240;SDS011;7723;52.170;9.978;2023-07-22T14:15:01;4.93;;;3.97;;
15240;SDS011;7723;52.170;9.978;2023-07-22T14:17:30;5.30;;;3.95;;
15240;SDS011;7723;52.170;9.978;2023-07-22T14:19:58;5.10;;;3.72;;
15240;SDS011;7723;52.170;9.978;2023-07-22T14:22:25;5.75;;;4.53;;
15240;SDS011;7723;52.170;9.978;2023-07-22T14:24:53;6.78;;;3.92;;
15240;SDS011;7723;52.170;9.978;2023-07-22T14:27:20;5.43;;;3.97;;
15240;SDS011;7723;52.170;9.978;2023-07-22T14:29:48;4.63;;;3.00;;
15240;SDS011;7723;52.170;9.978;2023-07-22T14:32:15;4.25;;;3.47;;
15240;SDS011;7723;52.170;9.978;2023-07-22T14:34:42;4.55;;;4.10;;
15240;SDS011;7723;52.170;9.978;2023-07-22T14:37:09;4.35;;;3.42;;
15240;SDS011;7723;52.170;9.978;2023-07-22T14:39:36;4.00;;;3.45;;
15240;SDS011;7723;52.170;9.978;2023-07-22T14:42:05;4.07;;;3.45;;
15240;SDS011;7723;52.170;9.978;2023-07-22T14:44:32;4.13;;;3.47;;
15240;SDS011;7723;52.170;9.978;2023-07-22T14:46:59;5.63;;;3.65;;
15240;SDS011;7723;52.170;9.978;2023-07-22T14:49:26;5.07;;;3.63;;
15240;SDS011;7723;52.170;9.978;2023-07-22T14:51:53;4.53;;;3.33;;
15240;SDS011;7723;52.170;9.978;2023-07-22T14:54:21;6.10;;;3.78;;
15240;SDS011;7723;52.170;9.978;2023-07-22T15:07:04;4.93;;;2.88;;
15240;SDS011;7723;52.170;9.978;2023-07-22T15:09:31;4.00;;;3.22;;
15240;SDS011;7723;52.170;9.978;2023-07-22T15:11:58;3.45;;;3.13;;
15240;SDS011;7723;52.170;9.978;2023-07-22T15:14:25;3.88;;;3.17;;
15240;SDS011;7723;52.170;9.978;2023-07-22T15:16:52;4.13;;;3.20;;
15240;SDS011;7723;52.170;9.978;2023-07-22T15:19:21;4.05;;;3.35;;